createdAt,value
2023-03-05T02:20:03.559Z,67.90
2023-03-05T02:22:30.727Z,68.10
2023-03-05T02:24:57.720Z,68.10
2023-03-05T02:27:35.028Z,68.00
2023-03-05T02:30:02.645Z,67.90
2023-03-05T02:32:29.944Z,68.30
2023-03-05T02:34:57.015Z,68.20
2023-03-05T02:37:24.095Z,68.30
2023-03-05T02:39:51.880Z,68.40
2023-03-05T02:42:19.114Z,68.30
2023-03-05T02:44:46.159Z,68.20
2023-03-05T02:47:13.071Z,68.00
2023-03-05T02:49:40.239Z,67.90
2023-03-05T02:52:07.337Z,68.50
2023-03-05T02:54:34.482Z,68.10
2023-03-05T02:57:03.505Z,68.20
2023-03-05T02:59:30.617Z,68.50
2023-03-05T03:01:57.494Z,68.60
2023-03-05T03:04:24.655Z,68.70
2023-03-05T03:06:51.523Z,68.70
2023-03-05T03:09:18.487Z,69.10
2023-03-05T03:11:45.337Z,68.70
2023-03-05T03:14:12.320Z,69.00
2023-03-05T03:16:39.248Z,68.70
2023-03-05T03:19:06.227Z,69.00
2023-03-05T03:21:33.174Z,68.80
2023-03-05T03:24:00.168Z,68.90
2023-03-05T03:26:27.398Z,68.70
2023-03-05T03:28:54.372Z,68.40
2023-03-05T03:31:21.378Z,68.30
2023-03-05T03:33:48.305Z,68.20
2023-03-05T03:36:15.135Z,67.80
2023-03-05T03:38:42.452Z,67.50
2023-03-05T03:41:09.689Z,67.80
2023-03-05T03:43:37.198Z,67.70
2023-03-05T03:46:06.823Z,68.00
2023-03-05T03:48:33.782Z,68.10
2023-03-05T03:51:04.476Z,68.50
2023-03-05T03:53:31.343Z,68.60
2023-03-05T03:55:59.522Z,69.10
2023-03-05T03:58:26.680Z,69.00
2023-03-05T04:00:53.591Z,68.90
2023-03-05T04:03:20.530Z,69.00
2023-03-05T04:05:47.475Z,69.00
2023-03-05T04:08:14.359Z,68.70
2023-03-05T04:10:41.351Z,68.90
2023-03-05T04:13:08.509Z,68.70
2023-03-05T04:15:35.544Z,69.00
2023-03-05T04:18:02.442Z,68.80
2023-03-05T04:20:29.446Z,69.00
2023-03-05T04:22:56.500Z,69.10
2023-03-05T04:25:23.431Z,69.10
2023-03-05T04:27:51.046Z,69.30
2023-03-05T04:30:17.996Z,69.60
2023-03-05T04:32:44.905Z,69.70
2023-03-05T04:35:11.830Z,69.80
2023-03-05T04:37:38.710Z,70.10
2023-03-05T04:40:06.641Z,70.00
2023-03-05T04:42:33.530Z,69.90
2023-03-05T04:45:00.448Z,70.00
2023-03-05T04:47:27.335Z,70.30
2023-03-05T04:49:54.281Z,70.50
2023-03-05T04:52:21.186Z,70.50
2023-03-05T04:54:48.249Z,70.20
2023-03-05T04:57:15.519Z,70.40
2023-03-05T04:59:42.450Z,70.20
2023-03-05T05:02:09.337Z,70.30
2023-03-05T05:04:36.246Z,70.00
2023-03-05T05:07:04.620Z,70.10
2023-03-05T05:09:31.522Z,70.00
2023-03-05T05:11:58.444Z,70.40
2023-03-05T05:14:25.401Z,70.10
2023-03-05T05:16:52.342Z,70.30
2023-03-05T05:19:19.274Z,70.30
2023-03-05T05:21:46.240Z,70.60
2023-03-05T05:24:13.235Z,70.30
2023-03-05T05:26:40.244Z,70.60
2023-03-05T05:29:07.127Z,70.40
2023-03-05T05:31:34.159Z,70.40
2023-03-05T05:34:01.110Z,70.60
2023-03-05T05:36:27.989Z,70.50
2023-03-05T05:38:54.906Z,70.60
2023-03-05T05:41:21.984Z,70.90
2023-03-05T05:43:49.301Z,71.10
2023-03-05T05:46:18.466Z,71.00
2023-03-05T05:48:46.467Z,71.00
2023-03-05T05:51:17.971Z,71.10
2023-03-05T05:53:45.604Z,71.10
2023-03-05T05:56:13.462Z,70.90
2023-03-05T05:58:41.317Z,71.00
2023-03-05T06:01:24.245Z,71.20
2023-03-05T06:03:52.214Z,71.50
2023-03-05T06:06:21.655Z,71.40
2023-03-05T06:08:49.059Z,71.80
2023-03-05T06:11:18.898Z,71.60
2023-03-05T06:13:47.018Z,71.90
2023-03-05T06:16:17.203Z,71.80
2023-03-05T06:18:44.214Z,71.70
2023-03-05T06:21:13.771Z,71.70
2023-03-05T06:23:41.490Z,71.90
2023-03-05T06:26:10.774Z,71.80
2023-03-05T06:28:37.664Z,71.70
2023-03-05T06:31:10.695Z,71.80
2023-03-05T06:33:38.512Z,71.90
2023-03-05T06:36:07.868Z,71.80
2023-03-05T06:38:35.217Z,71.70
2023-03-05T06:41:09.294Z,71.80
2023-03-05T06:43:38.610Z,71.70
2023-03-05T06:46:21.609Z,71.70
2023-03-05T06:48:49.336Z,71.80
2023-03-05T06:51:37.649Z,72.00
2023-03-05T06:54:10.878Z,71.90
2023-03-05T06:56:39.514Z,71.50
2023-03-05T06:59:07.290Z,71.10
2023-03-05T07:01:34.967Z,71.10
2023-03-05T07:04:03.124Z,71.30
2023-03-05T07:06:33.817Z,71.30
2023-03-05T07:09:01.423Z,71.60
2023-03-05T07:11:31.800Z,71.50
2023-03-05T07:13:58.922Z,71.70
2023-03-05T07:16:28.374Z,71.80
2023-03-05T07:18:57.206Z,72.20
2023-03-05T07:21:29.754Z,71.90
2023-03-05T07:23:59.113Z,71.90
2023-03-05T07:26:26.912Z,71.70
2023-03-05T07:28:57.378Z,73.00
2023-03-05T07:31:31.013Z,73.70
2023-03-05T07:34:00.138Z,73.70
2023-03-05T07:36:29.086Z,72.70
2023-03-05T07:38:57.371Z,72.50
2023-03-05T07:41:24.537Z,72.10
2023-03-05T07:43:54.025Z,72.30
2023-03-05T07:46:23.801Z,71.90
2023-03-05T07:48:50.822Z,72.10
2023-03-05T07:51:20.155Z,71.90
2023-03-05T07:53:49.108Z,71.70
2023-03-05T07:56:36.285Z,71.60
2023-03-05T07:59:06.475Z,71.80
2023-03-05T08:01:35.567Z,72.10
2023-03-05T08:04:04.112Z,71.80
2023-03-05T08:06:31.706Z,72.20
2023-03-05T08:09:01.980Z,71.60
2023-03-05T08:11:28.915Z,71.50
2023-03-05T08:13:58.102Z,71.50
2023-03-05T08:16:28.861Z,71.70
2023-03-05T08:18:57.451Z,71.50
2023-03-05T08:21:35.619Z,71.60
2023-03-05T08:24:05.856Z,71.80
2023-03-05T08:26:34.603Z,71.90
2023-03-05T08:29:03.352Z,71.80
2023-03-05T08:31:31.530Z,72.10
2023-03-05T08:34:00.167Z,72.40
2023-03-05T08:36:27.794Z,71.60
2023-03-05T08:38:55.880Z,71.80
2023-03-05T08:41:23.198Z,71.90
2023-03-05T08:43:50.035Z,71.80
2023-03-05T08:46:17.279Z,72.10
2023-03-05T08:48:44.351Z,72.10
2023-03-05T08:51:16.200Z,71.90
2023-03-05T08:53:44.597Z,71.70
2023-03-05T08:56:11.881Z,71.60
2023-03-05T08:58:39.111Z,71.40
2023-03-05T09:01:06.775Z,71.20
2023-03-05T09:03:33.746Z,70.50
2023-03-05T09:06:03.071Z,70.80
2023-03-05T09:08:30.377Z,70.00
2023-03-05T09:10:57.736Z,69.70
2023-03-05T09:13:24.936Z,69.40
2023-03-05T09:15:56.906Z,69.10
2023-03-05T09:18:23.909Z,68.80
2023-03-05T09:20:50.774Z,68.20
2023-03-05T09:23:17.852Z,68.00
2023-03-05T09:25:44.747Z,67.50
2023-03-05T09:28:11.789Z,67.20
2023-03-05T09:30:38.966Z,67.00
2023-03-05T09:33:05.916Z,66.70
2023-03-05T09:35:35.648Z,66.60
2023-03-05T09:38:03.109Z,66.70
2023-03-05T09:40:59.545Z,66.40
2023-03-05T09:43:51.376Z,66.20
2023-03-05T09:46:18.256Z,65.70
2023-03-05T09:48:50.413Z,65.50
2023-03-05T09:51:23.140Z,65.10
2023-03-05T09:53:53.856Z,64.60
2023-03-05T09:56:25.304Z,63.90
2023-03-05T09:59:20.156Z,63.80
2023-03-05T10:01:50.269Z,63.20
2023-03-05T10:04:25.487Z,61.70
2023-03-05T10:07:19.275Z,61.50
2023-03-05T10:09:54.285Z,61.40
2023-03-05T10:12:43.049Z,60.70
2023-03-05T10:15:32.036Z,60.10
2023-03-05T10:18:05.755Z,60.20
2023-03-05T10:20:47.953Z,60.70
2023-03-05T10:23:24.827Z,60.40
2023-03-05T10:26:17.416Z,60.10
2023-03-05T10:29:04.726Z,59.80
2023-03-05T10:31:31.663Z,59.80
2023-03-05T10:34:32.625Z,58.60
2023-03-05T10:37:07.518Z,58.70
2023-03-05T10:39:54.527Z,58.50
2023-03-05T10:45:41.646Z,56.90
2023-03-05T10:48:23.498Z,56.60
2023-03-05T10:51:03.012Z,56.40
2023-03-05T10:53:35.156Z,56.40
2023-03-05T10:56:06.617Z,56.30
2023-03-05T10:58:33.664Z,56.20
2023-03-05T11:01:22.088Z,56.00
2023-03-05T11:04:05.989Z,55.40
2023-03-05T11:06:42.235Z,54.90
2023-03-05T11:09:15.177Z,55.00
2023-03-05T11:11:42.100Z,54.90
2023-03-05T11:14:30.931Z,54.50
2023-03-05T11:16:57.936Z,54.50
2023-03-05T11:19:32.913Z,54.40
2023-03-05T11:22:19.175Z,53.00
2023-03-05T11:25:02.914Z,53.00
2023-03-05T11:27:37.852Z,52.10
2023-03-05T11:30:19.074Z,52.10
2023-03-05T11:32:47.816Z,51.50
2023-03-05T11:35:34.444Z,51.70
2023-03-05T11:38:03.894Z,51.40
2023-03-05T11:40:35.717Z,51.00
2023-03-05T11:43:04.411Z,50.90
2023-03-05T11:45:33.105Z,51.10
2023-03-05T11:48:14.759Z,50.90
2023-03-05T11:50:43.718Z,51.10
2023-03-05T11:53:20.585Z,50.70
2023-03-05T11:55:59.947Z,51.00
2023-03-05T11:58:39.299Z,49.50
2023-03-05T12:01:27.299Z,48.90
2023-03-05T12:03:55.799Z,48.80
2023-03-05T12:06:44.559Z,49.00
2023-03-05T12:09:37.848Z,49.10
2023-03-05T12:12:09.601Z,49.30
2023-03-05T12:14:51.068Z,49.50
2023-03-05T12:17:28.096Z,49.20
2023-03-05T12:20:07.710Z,49.50
2023-03-05T12:22:38.480Z,49.10
2023-03-05T12:25:27.167Z,49.40
2023-03-05T12:27:54.314Z,49.00
2023-03-05T12:30:50.301Z,48.90
2023-03-05T12:33:29.622Z,48.70
2023-03-05T12:36:16.472Z,47.90
2023-03-05T12:38:44.304Z,47.20
2023-03-05T12:41:34.846Z,47.50
2023-03-05T12:44:08.022Z,47.10
2023-03-05T12:46:39.710Z,47.50
2023-03-05T12:49:27.072Z,47.90
2023-03-05T12:52:00.962Z,48.00
2023-03-05T12:54:41.903Z,48.10
2023-03-05T12:57:19.379Z,47.90
2023-03-05T13:00:10.976Z,46.80
2023-03-05T13:02:44.487Z,46.60
2023-03-05T13:05:26.068Z,46.20
2023-03-05T13:07:53.434Z,46.40
2023-03-05T13:10:26.915Z,46.30
2023-03-05T13:12:57.418Z,45.40
2023-03-05T13:15:26.385Z,45.60
2023-03-05T13:17:55.866Z,45.80
2023-03-05T13:20:43.070Z,46.00
2023-03-05T13:23:22.068Z,45.70
2023-03-05T13:26:12.584Z,46.10
2023-03-05T13:28:39.970Z,46.40
2023-03-05T13:31:15.797Z,46.30
2023-03-05T13:33:55.892Z,45.80
2023-03-05T13:36:25.340Z,45.70
2023-03-05T13:38:53.252Z,49.50
2023-03-05T13:41:28.399Z,49.90
2023-03-05T13:44:00.949Z,50.10
2023-03-05T13:46:38.652Z,48.40
2023-03-05T13:49:28.390Z,48.50
2023-03-05T13:51:57.886Z,48.00
2023-03-05T13:54:26.892Z,46.50
2023-03-05T13:57:06.407Z,45.30
2023-03-05T13:59:36.642Z,45.00
2023-03-05T14:02:14.972Z,44.30
2023-03-05T14:04:47.121Z,44.20
2023-03-05T14:07:41.149Z,43.20
2023-03-05T14:10:28.493Z,43.10
2023-03-05T14:12:55.826Z,43.00
2023-03-05T14:15:26.683Z,42.80
2023-03-05T14:18:13.654Z,42.70
2023-03-05T14:20:59.356Z,42.50
2023-03-05T14:23:32.453Z,42.40
2023-03-05T14:26:33.795Z,42.80
2023-03-05T14:29:04.939Z,42.80
2023-03-05T14:31:55.871Z,42.30
2023-03-05T14:34:30.431Z,42.00
2023-03-05T14:37:18.225Z,41.40
2023-03-05T14:40:05.705Z,41.70
2023-03-05T14:42:41.519Z,42.10
2023-03-05T14:45:16.532Z,41.10
2023-03-05T14:47:43.830Z,40.70
2023-03-05T14:50:16.447Z,40.40
2023-03-05T14:52:43.859Z,40.90
2023-03-05T14:55:16.524Z,41.00
2023-03-05T14:57:43.647Z,40.90
2023-03-05T15:00:23.254Z,40.30
2023-03-05T15:02:50.828Z,40.60
2023-03-05T15:05:19.038Z,40.30
2023-03-05T15:07:47.001Z,39.60
2023-03-05T15:10:16.974Z,39.40
2023-03-05T15:12:44.336Z,39.70
2023-03-05T15:15:15.214Z,39.50
2023-03-05T15:17:47.376Z,39.80
2023-03-05T15:20:26.520Z,40.20
2023-03-05T15:22:53.600Z,40.60
2023-03-05T15:25:26.765Z,40.60
2023-03-05T15:27:53.796Z,40.70
2023-03-05T15:30:23.521Z,40.10
2023-03-05T15:32:51.256Z,39.90
2023-03-05T15:35:18.597Z,40.10
2023-03-05T15:37:45.725Z,40.40
2023-03-05T15:40:13.375Z,40.40
2023-03-05T15:42:40.973Z,40.60
2023-03-05T15:45:08.456Z,40.70
2023-03-05T15:47:35.697Z,40.70
2023-03-05T15:50:02.727Z,40.80
2023-03-05T15:52:29.753Z,41.00
2023-03-05T15:54:56.690Z,41.10
2023-03-05T15:57:23.954Z,40.60
2023-03-05T15:59:50.970Z,41.00
2023-03-05T16:02:18.945Z,41.10
2023-03-05T16:04:45.966Z,41.30
2023-03-05T16:07:14.912Z,41.40
2023-03-05T16:09:47.163Z,41.30
2023-03-05T16:12:18.378Z,41.60
2023-03-05T16:14:45.933Z,41.30
2023-03-05T16:17:15.439Z,41.30
2023-03-05T16:19:46.243Z,41.30
2023-03-05T16:22:13.302Z,41.20
2023-03-05T16:24:40.527Z,41.50
2023-03-05T16:27:07.622Z,42.20
2023-03-05T16:29:34.611Z,42.40
2023-03-05T16:32:05.594Z,43.00
2023-03-05T16:34:34.448Z,43.30
2023-03-05T16:37:04.300Z,43.30
2023-03-05T16:39:31.203Z,43.70
2023-03-05T16:41:58.247Z,44.00
2023-03-05T16:44:25.395Z,45.00
2023-03-05T16:46:56.492Z,45.30
2023-03-05T16:49:24.010Z,45.50
2023-03-05T16:51:50.980Z,46.10
2023-03-05T16:54:17.940Z,46.50
2023-03-05T16:56:44.985Z,46.60
2023-03-05T16:59:11.908Z,46.90
2023-03-05T17:01:39.051Z,47.20
2023-03-05T17:04:06.009Z,47.40
2023-03-05T17:06:33.685Z,47.40
2023-03-05T17:09:01.499Z,47.70
2023-03-05T17:11:28.768Z,48.20
2023-03-05T17:13:55.883Z,48.70
2023-03-05T17:16:23.584Z,49.30
2023-03-05T17:18:50.606Z,49.20
2023-03-05T17:21:17.784Z,49.30
2023-03-05T17:23:44.916Z,49.70
2023-03-05T17:26:15.205Z,50.20
2023-03-05T17:28:42.505Z,50.40
2023-03-05T17:31:10.297Z,50.70
2023-03-05T17:33:38.149Z,51.00
2023-03-05T17:36:05.997Z,51.20
2023-03-05T17:38:33.103Z,51.50
2023-03-05T17:41:00.170Z,51.80
2023-03-05T17:43:27.084Z,52.10
2023-03-05T17:45:59.533Z,52.20
2023-03-05T17:48:27.039Z,52.10
2023-03-05T17:50:54.360Z,52.30
2023-03-05T17:53:21.977Z,52.70
2023-03-05T17:55:48.866Z,53.00
2023-03-05T17:58:15.759Z,53.10
2023-03-05T18:00:42.809Z,53.30
2023-03-05T18:03:09.871Z,53.40
2023-03-05T18:05:36.994Z,53.70
2023-03-05T18:08:04.163Z,54.20
2023-03-05T18:10:31.879Z,54.30
2023-03-05T18:12:58.999Z,54.40
2023-03-05T18:15:27.334Z,54.30
2023-03-05T18:17:54.903Z,54.40
2023-03-05T18:20:38.473Z,54.80
2023-03-05T18:23:05.918Z,54.80
2023-03-05T18:25:32.978Z,55.00
2023-03-05T18:28:01.824Z,55.20
2023-03-05T18:30:29.738Z,55.20
2023-03-05T18:32:56.705Z,55.20
2023-03-05T18:35:24.617Z,54.90
2023-03-05T18:37:51.810Z,55.20
2023-03-05T18:40:22.236Z,56.20
2023-03-05T18:42:50.015Z,56.30
2023-03-05T18:45:19.339Z,56.20
2023-03-05T18:47:47.048Z,56.10
2023-03-05T18:50:17.027Z,55.90
2023-03-05T18:52:45.149Z,56.00
2023-03-05T18:55:27.346Z,56.20
2023-03-05T18:57:54.836Z,56.40
2023-03-05T19:00:25.398Z,56.50
2023-03-05T19:02:53.019Z,56.40
2023-03-05T19:05:20.813Z,56.50
2023-03-05T19:07:48.665Z,56.90
2023-03-05T19:10:17.848Z,57.20
2023-03-05T19:12:58.008Z,57.50
2023-03-05T19:15:25.206Z,57.70
2023-03-05T19:17:52.260Z,57.90
2023-03-05T19:20:19.391Z,57.80
2023-03-05T19:22:46.499Z,57.60
2023-03-05T19:25:13.793Z,57.40
2023-03-05T19:27:40.952Z,57.80
2023-03-05T19:30:08.876Z,58.10
2023-03-05T19:32:36.035Z,58.10
2023-03-05T19:35:03.940Z,58.00
2023-03-05T19:37:32.180Z,58.10
2023-03-05T19:39:59.246Z,58.30
2023-03-05T19:42:26.346Z,58.30
2023-03-05T19:44:58.424Z,58.40
2023-03-05T19:47:27.130Z,58.40
2023-03-05T19:49:54.203Z,58.20
2023-03-05T19:52:21.822Z,58.30
2023-03-05T19:54:51.577Z,58.50
2023-03-05T19:57:18.659Z,58.50
2023-03-05T19:59:47.078Z,58.50
2023-03-05T20:02:14.548Z,58.60
2023-03-05T20:04:41.789Z,58.70
2023-03-05T20:07:10.655Z,58.70
2023-03-05T20:09:40.993Z,58.70
2023-03-05T20:12:08.530Z,58.50
2023-03-05T20:14:35.634Z,58.40
2023-03-05T20:17:02.669Z,58.30
2023-03-05T20:19:33.014Z,58.00
2023-03-05T20:25:03.235Z,57.90
2023-03-05T20:28:20.314Z,58.10
2023-03-05T20:31:27.271Z,58.00
2023-03-05T20:34:03.812Z,58.10
2023-03-05T20:36:31.423Z,58.20
2023-03-05T20:38:58.875Z,58.10
2023-03-05T20:44:19.691Z,58.10
2023-03-05T20:47:02.613Z,58.50
2023-03-05T20:49:29.834Z,58.40
2023-03-05T20:51:56.922Z,58.50
2023-03-05T20:54:27.344Z,58.70
2023-03-05T20:57:00.807Z,58.90
2023-03-05T20:59:28.076Z,58.90
2023-03-05T21:01:55.051Z,58.90
2023-03-05T21:04:22.165Z,59.10
2023-03-05T21:06:53.207Z,58.90
2023-03-05T21:09:20.283Z,59.00
2023-03-05T21:11:47.226Z,58.90
2023-03-05T21:14:14.113Z,59.20
2023-03-05T21:16:41.181Z,59.30
2023-03-05T21:19:08.067Z,59.60
2023-03-05T21:21:34.957Z,59.70
2023-03-05T21:24:01.860Z,59.80
2023-03-05T21:26:28.857Z,59.70
2023-03-05T21:28:56.026Z,60.50
2023-03-05T21:31:23.533Z,60.00
2023-03-05T21:33:50.493Z,60.00
2023-03-05T21:36:18.779Z,59.90
2023-03-05T21:38:49.780Z,60.00
2023-03-05T21:41:18.135Z,60.20
2023-03-05T21:43:45.134Z,60.00
2023-03-05T21:46:12.348Z,60.30
2023-03-05T21:48:39.234Z,60.50
2023-03-05T21:51:08.713Z,60.70
2023-03-05T21:53:36.151Z,60.50
2023-03-05T21:56:18.028Z,60.50
2023-03-05T21:58:45.939Z,60.60
2023-03-05T22:01:14.791Z,60.60
2023-03-05T22:03:41.925Z,60.60
2023-03-05T22:06:14.047Z,60.70
2023-03-05T22:08:41.106Z,60.80
2023-03-05T22:11:13.015Z,61.70
2023-03-05T22:13:40.580Z,61.30
2023-03-05T22:16:09.210Z,61.20
2023-03-05T22:18:36.805Z,61.10
2023-03-05T22:21:04.865Z,61.00
2023-03-05T22:23:36.711Z,60.80
2023-03-05T22:26:07.637Z,60.70
2023-03-05T22:28:35.734Z,60.90
2023-03-05T22:31:02.897Z,61.60
2023-03-05T22:33:29.957Z,61.00
2023-03-05T22:35:57.532Z,61.00
2023-03-05T22:38:25.412Z,61.00
2023-03-05T22:40:52.461Z,61.10
2023-03-05T22:43:20.612Z,61.10
2023-03-05T22:45:47.753Z,61.20
2023-03-05T22:48:15.339Z,61.60
2023-03-05T22:50:44.006Z,61.50
2023-03-05T22:53:11.423Z,61.30
2023-03-05T22:55:42.532Z,61.40
2023-03-05T22:58:09.822Z,61.20
2023-03-05T23:00:37.515Z,61.00
2023-03-05T23:03:06.381Z,61.10
2023-03-05T23:05:34.536Z,61.70
2023-03-05T23:08:01.517Z,61.80
2023-03-05T23:10:29.314Z,62.00
2023-03-05T23:12:58.580Z,62.00
2023-03-05T23:15:26.733Z,62.10
2023-03-05T23:17:54.210Z,61.90
2023-03-05T23:20:22.956Z,62.00
2023-03-05T23:22:56.347Z,62.30
2023-03-05T23:25:25.783Z,61.90
2023-03-05T23:27:53.360Z,62.10
2023-03-05T23:30:20.713Z,61.90
2023-03-05T23:33:02.450Z,61.90
2023-03-05T23:35:32.738Z,61.90
2023-03-05T23:38:01.594Z,62.00
2023-03-05T23:40:34.531Z,61.90
2023-03-05T23:43:01.818Z,62.20
2023-03-05T23:45:29.310Z,61.90
2023-03-05T23:47:56.598Z,61.80
2023-03-05T23:50:29.963Z,62.00
2023-03-05T23:52:59.478Z,62.10
2023-03-05T23:55:31.595Z,62.10
2023-03-05T23:57:59.302Z,62.30
